createdAt,value
2022-12-05T00:04:23.694Z,96.24
2022-12-05T00:12:46.744Z,96.40
2022-12-05T00:21:15.816Z,96.43
2022-12-05T00:29:38.682Z,96.38
2022-12-05T00:38:01.710Z,96.41
2022-12-05T00:46:26.716Z,96.70
2022-12-05T00:54:49.780Z,96.28
2022-12-05T01:03:12.882Z,96.42
2022-12-05T01:11:40.943Z,95.96
2022-12-05T01:20:05.168Z,96.14
2022-12-05T01:28:28.083Z,96.30
2022-12-05T01:36:51.563Z,96.24
2022-12-05T01:45:18.686Z,96.04
2022-12-05T01:53:41.718Z,96.30
2022-12-05T02:02:05.433Z,96.05
2022-12-05T02:10:33.795Z,96.11
2022-12-05T02:19:12.102Z,95.90
2022-12-05T02:28:01.485Z,95.95
2022-12-05T02:36:35.228Z,95.73
2022-12-05T02:45:10.089Z,95.71
2022-12-05T02:53:37.406Z,95.78
2022-12-05T03:02:00.549Z,95.41
2022-12-05T03:10:27.342Z,95.47
2022-12-05T03:19:04.130Z,95.25
2022-12-05T03:27:33.961Z,95.14
2022-12-05T03:36:06.197Z,95.21
2022-12-05T03:44:40.943Z,95.25
2022-12-05T03:53:25.259Z,95.11
2022-12-05T04:01:51.114Z,95.66
2022-12-05T04:10:18.389Z,95.49
2022-12-05T04:18:49.686Z,95.14
2022-12-05T04:27:12.502Z,95.51
2022-12-05T04:35:41.814Z,95.29
2022-12-05T04:44:11.569Z,95.41
2022-12-05T04:52:36.130Z,95.59
2022-12-05T05:01:23.715Z,95.49
2022-12-05T05:09:46.738Z,95.57
2022-12-05T05:18:10.243Z,95.86
2022-12-05T05:26:52.462Z,95.47
2022-12-05T05:35:18.669Z,95.49
2022-12-05T05:43:45.112Z,95.76
2022-12-05T05:52:08.186Z,95.65
2022-12-05T06:00:31.096Z,95.81
2022-12-05T06:08:55.188Z,95.84
2022-12-05T06:17:18.300Z,95.61
2022-12-05T06:25:47.769Z,95.83
2022-12-05T06:34:10.579Z,95.89
2022-12-05T06:42:34.246Z,95.81
2022-12-05T06:51:17.317Z,95.94
2022-12-05T06:59:40.441Z,95.83
2022-12-05T07:08:03.714Z,95.92
2022-12-05T07:16:27.067Z,95.76
2022-12-05T07:24:52.923Z,95.62
2022-12-05T07:33:15.812Z,95.83
2022-12-05T07:41:38.811Z,95.40
2022-12-05T07:50:03.092Z,95.23
2022-12-05T07:58:26.460Z,95.32
2022-12-05T08:06:49.392Z,95.10
2022-12-05T08:15:12.667Z,94.82
2022-12-05T08:23:37.606Z,95.01
2022-12-05T08:32:00.647Z,94.50
2022-12-05T08:40:24.247Z,94.52
2022-12-05T08:48:47.223Z,94.44
2022-12-05T08:57:10.135Z,94.29
2022-12-05T09:05:33.319Z,94.48
2022-12-05T09:13:58.392Z,94.53
2022-12-05T09:22:26.118Z,94.68
2022-12-05T09:30:58.206Z,94.62
2022-12-05T09:39:21.267Z,94.64
2022-12-05T09:48:01.177Z,94.37
2022-12-05T09:56:29.784Z,94.41
2022-12-05T10:05:01.421Z,94.33
2022-12-05T10:13:37.293Z,94.23
2022-12-05T10:22:14.727Z,94.29
2022-12-05T10:30:42.509Z,93.82
2022-12-05T10:39:11.253Z,93.74
2022-12-05T10:47:35.970Z,93.40
2022-12-05T11:04:45.327Z,93.15
2022-12-05T11:13:25.581Z,93.08
2022-12-05T11:21:50.081Z,92.39
2022-12-05T11:30:13.290Z,92.49
2022-12-05T11:38:36.866Z,92.73
2022-12-05T11:47:02.995Z,92.75
2022-12-05T11:55:29.361Z,92.15
2022-12-05T12:04:01.072Z,92.48
2022-12-05T12:12:44.111Z,91.46
2022-12-05T12:21:13.080Z,92.02
2022-12-05T12:29:57.154Z,91.89
2022-12-05T12:38:51.588Z,92.01
2022-12-05T12:47:19.314Z,92.16
2022-12-05T12:55:50.986Z,92.07
2022-12-05T13:04:19.410Z,92.09
2022-12-05T13:12:44.445Z,91.92
2022-12-05T13:21:10.317Z,91.98
2022-12-05T13:29:38.642Z,92.17
2022-12-05T13:38:20.377Z,92.37
2022-12-05T13:46:43.614Z,92.58
2022-12-05T13:55:33.947Z,92.71
2022-12-05T14:03:59.729Z,92.37
2022-12-05T14:12:22.572Z,92.83
2022-12-05T14:21:24.520Z,93.13
2022-12-05T14:30:12.232Z,93.24
2022-12-05T14:38:38.126Z,93.35
2022-12-05T14:47:06.059Z,93.41
2022-12-05T14:55:31.384Z,93.66
2022-12-05T15:04:03.665Z,93.49
2022-12-05T15:12:49.160Z,93.67
2022-12-05T15:21:42.915Z,93.60
2022-12-05T15:30:15.184Z,93.66
2022-12-05T15:38:38.661Z,93.82
2022-12-05T15:47:01.636Z,93.71
2022-12-05T15:55:36.741Z,93.89
2022-12-05T16:04:09.443Z,93.95
2022-12-05T16:12:40.177Z,94.08
2022-12-05T16:21:03.626Z,93.86
2022-12-05T16:29:31.928Z,93.78
2022-12-05T16:38:13.261Z,93.69
2022-12-05T16:46:39.133Z,93.86
2022-12-05T16:55:02.200Z,93.92
2022-12-05T17:03:35.799Z,93.76
2022-12-05T17:12:11.040Z,93.74
2022-12-05T17:20:35.041Z,93.76
2022-12-05T17:28:58.046Z,93.95
2022-12-05T17:37:21.072Z,93.82
2022-12-05T17:45:44.232Z,93.72
2022-12-05T17:54:07.299Z,93.69
2022-12-05T18:02:30.338Z,93.79
2022-12-05T18:10:53.337Z,93.51
2022-12-05T18:19:16.333Z,93.77
2022-12-05T18:27:39.495Z,93.75
2022-12-05T18:36:08.905Z,93.79
2022-12-05T18:44:32.416Z,93.83
2022-12-05T18:52:55.365Z,94.09
2022-12-05T19:01:18.354Z,94.05
2022-12-05T19:09:41.351Z,94.05
2022-12-05T19:18:04.366Z,93.95
2022-12-05T19:26:27.368Z,93.95
2022-12-05T19:34:51.548Z,94.06
2022-12-05T19:43:14.419Z,94.26
2022-12-05T19:51:38.341Z,94.20
2022-12-05T20:00:01.553Z,94.48
2022-12-05T20:08:25.587Z,94.54
2022-12-05T20:16:48.871Z,94.15
2022-12-05T20:25:12.503Z,94.40
2022-12-05T20:33:36.156Z,94.58
2022-12-05T20:41:59.267Z,94.45
2022-12-05T20:50:22.266Z,94.57
2022-12-05T20:58:47.678Z,94.66
2022-12-05T21:07:10.611Z,94.50
2022-12-05T21:15:37.308Z,94.68
2022-12-05T21:24:01.888Z,94.83
2022-12-05T21:32:24.863Z,94.69
2022-12-05T21:40:47.863Z,94.91
2022-12-05T21:49:11.528Z,95.17
2022-12-05T21:57:38.666Z,95.21
2022-12-05T22:06:10.279Z,95.22
2022-12-05T22:14:33.301Z,95.38
2022-12-05T22:22:56.343Z,95.23
2022-12-05T22:31:20.765Z,95.43
2022-12-05T22:39:44.003Z,95.72
2022-12-05T22:48:06.967Z,95.86
2022-12-05T22:56:30.610Z,95.93
2022-12-05T23:04:55.965Z,96.02
2022-12-05T23:13:18.980Z,96.15
2022-12-05T23:21:42.478Z,96.29
2022-12-05T23:30:07.030Z,96.25
2022-12-05T23:38:30.185Z,96.28
2022-12-05T23:46:53.483Z,96.31
2022-12-05T23:55:16.531Z,96.41
